sensor_id;sensor_type;location;lat;lon;timestamp;pressure;altitude;pressure_sealevel;temperature;humidity
28167;BME280;15455;53.376;-6.262;2023-07-20T00:01:13;101649.22;;;12.45;100.00
28167;BME280;15455;53.376;-6.262;2023-07-20T00:03:58;101650.13;;;12.44;100.00
28167;BME280;15455;53.376;-6.262;2023-07-20T00:06:44;101654.44;;;12.43;100.00
28167;BME280;15455;53.376;-6.262;2023-07-20T00:09:30;101650.97;;;12.40;100.00
28167;BME280;15455;53.376;-6.262;2023-07-20T00:12:16;101657.91;;;12.39;100.00
28167;BME280;15455;53.376;-6.262;2023-07-20T00:15:02;101657.91;;;12.38;100.00
28167;BME280;15455;53.376;-6.262;2023-07-20T00:17:48;101661.44;;;12.37;100.00
28167;BME280;15455;53.376;-6.262;2023-07-20T00:20:33;101661.41;;;12.35;100.00
28167;BME280;15455;53.376;-6.262;2023-07-20T00:23:19;101662.28;;;12.36;100.00
28167;BME280;15455;53.376;-6.262;2023-07-20T00:26:08;101664.91;;;12.36;100.00
28167;BME280;15455;53.376;-6.262;2023-07-20T00:28:53;101662.28;;;12.32;100.00
28167;BME280;15455;53.376;-6.262;2023-07-20T00:31:39;101670.13;;;12.29;100.00
28167;BME280;15455;53.376;-6.262;2023-07-20T00:34:24;101663.13;;;12.27;100.00
28167;BME280;15455;53.376;-6.262;2023-07-20T00:37:11;101657.84;;;12.22;100.00
28167;BME280;15455;53.376;-6.262;2023-07-20T00:39:57;101667.41;;;12.19;100.00
28167;BME280;15455;53.376;-6.262;2023-07-20T00:42:43;101674.41;;;12.15;100.00
28167;BME280;15455;53.376;-6.262;2023-07-20T00:45:29;101670.88;;;12.10;100.00
28167;BME280;15455;53.376;-6.262;2023-07-20T00:48:15;101669.97;;;12.06;100.00
28167;BME280;15455;53.376;-6.262;2023-07-20T00:51:01;101667.31;;;12.00;100.00
28167;BME280;15455;53.376;-6.262;2023-07-20T00:53:47;101669.03;;;11.95;100.00
28167;BME280;15455;53.376;-6.262;2023-07-20T00:56:32;101672.47;;;11.92;100.00
28167;BME280;15455;53.376;-6.262;2023-07-20T00:59:18;101672.44;;;11.89;100.00
28167;BME280;15455;53.376;-6.262;2023-07-20T01:02:04;101676.78;;;11.87;100.00
28167;BME280;15455;53.376;-6.262;2023-07-20T01:04:49;101683.75;;;11.87;100.00
28167;BME280;15455;53.376;-6.262;2023-07-20T01:07:39;101683.75;;;11.87;100.00
28167;BME280;15455;53.376;-6.262;2023-07-20T01:10:39;101686.38;;;11.88;100.00
28167;BME280;15455;53.376;-6.262;2023-07-20T01:13:25;101682.88;;;11.86;100.00
28167;BME280;15455;53.376;-6.262;2023-07-20T01:16:12;101675.91;;;11.84;100.00
28167;BME280;15455;53.376;-6.262;2023-07-20T01:18:57;101676.75;;;11.82;100.00
28167;BME280;15455;53.376;-6.262;2023-07-20T01:21:53;101674.97;;;11.78;100.00
28167;BME280;15455;53.376;-6.262;2023-07-20T01:25:11;101681.06;;;11.76;100.00
28167;BME280;15455;53.376;-6.262;2023-07-20T01:31:21;101681.94;;;11.78;100.00
28167;BME280;15455;53.376;-6.262;2023-07-20T01:34:09;101676.72;;;11.78;100.00
28167;BME280;15455;53.376;-6.262;2023-07-20T01:36:59;101668.88;;;11.78;100.00
28167;BME280;15455;53.376;-6.262;2023-07-20T01:39:45;101674.97;;;11.80;100.00
28167;BME280;15455;53.376;-6.262;2023-07-20T01:42:31;101667.13;;;11.78;100.00
28167;BME280;15455;53.376;-6.262;2023-07-20T01:45:17;101674.09;;;11.78;100.00
28167;BME280;15455;53.376;-6.262;2023-07-20T01:48:02;101667.13;;;11.77;100.00
28167;BME280;15455;53.376;-6.262;2023-07-20T01:50:48;101664.50;;;11.75;100.00
28167;BME280;15455;53.376;-6.262;2023-07-20T01:53:34;101662.72;;;11.73;100.00
28167;BME280;15455;53.376;-6.262;2023-07-20T01:56:19;101660.97;;;11.69;100.00
28167;BME280;15455;53.376;-6.262;2023-07-20T01:59:05;101655.69;;;11.64;100.00
28167;BME280;15455;53.376;-6.262;2023-07-20T02:01:51;101660.88;;;11.58;100.00
28167;BME280;15455;53.376;-6.262;2023-07-20T02:04:36;101657.38;;;11.53;100.00
28167;BME280;15455;53.376;-6.262;2023-07-20T02:07:22;101661.69;;;11.51;100.00
28167;BME280;15455;53.376;-6.262;2023-07-20T02:10:09;101659.06;;;11.49;100.00
28167;BME280;15455;53.376;-6.262;2023-07-20T02:12:55;101659.06;;;11.49;100.00
28167;BME280;15455;53.376;-6.262;2023-07-20T02:15:44;101655.59;;;11.49;100.00
28167;BME280;15455;53.376;-6.262;2023-07-20T02:18:29;101653.84;;;11.51;100.00
28167;BME280;15455;53.376;-6.262;2023-07-20T02:21:15;101652.13;;;11.51;100.00
28167;BME280;15455;53.376;-6.262;2023-07-20T02:24:00;101654.75;;;11.53;100.00
28167;BME280;15455;53.376;-6.262;2023-07-20T02:26:45;101648.63;;;11.54;100.00
28167;BME280;15455;53.376;-6.262;2023-07-20T02:29:31;101654.78;;;11.56;100.00
28167;BME280;15455;53.376;-6.262;2023-07-20T02:32:16;101653.94;;;11.60;100.00
28167;BME280;15455;53.376;-6.262;2023-07-20T02:35:01;101659.19;;;11.61;100.00
28167;BME280;15455;53.376;-6.262;2023-07-20T02:37:49;101658.28;;;11.64;100.00
28167;BME280;15455;53.376;-6.262;2023-07-20T02:40:34;101659.19;;;11.63;100.00
28167;BME280;15455;53.376;-6.262;2023-07-20T02:43:19;101659.16;;;11.60;100.00
28167;BME280;15455;53.376;-6.262;2023-07-20T02:46:05;101662.63;;;11.57;100.00
28167;BME280;15455;53.376;-6.262;2023-07-20T02:48:50;101660.00;;;11.54;100.00
28167;BME280;15455;53.376;-6.262;2023-07-20T02:51:36;101656.44;;;11.51;100.00
28167;BME280;15455;53.376;-6.262;2023-07-20T02:54:21;101647.72;;;11.45;100.00
28167;BME280;15455;53.376;-6.262;2023-07-20T02:57:07;101643.28;;;11.37;100.00
28167;BME280;15455;53.376;-6.262;2023-07-20T02:59:53;101645.81;;;11.30;100.00
28167;BME280;15455;53.376;-6.262;2023-07-20T03:02:39;101645.75;;;11.23;100.00
28167;BME280;15455;53.376;-6.262;2023-07-20T03:05:25;101633.50;;;11.16;100.00
28167;BME280;15455;53.376;-6.262;2023-07-20T03:08:11;101637.78;;;11.10;100.00
28167;BME280;15455;53.376;-6.262;2023-07-20T03:10:56;101636.94;;;11.10;100.00
28167;BME280;15455;53.376;-6.262;2023-07-20T03:13:42;101635.16;;;11.07;100.00
28167;BME280;15455;53.376;-6.262;2023-07-20T03:16:28;101626.44;;;11.05;100.00
28167;BME280;15455;53.376;-6.262;2023-07-20T03:19:16;101630.81;;;11.06;100.00
28167;BME280;15455;53.376;-6.262;2023-07-20T03:22:01;101624.69;;;11.04;100.00
28167;BME280;15455;53.376;-6.262;2023-07-20T03:24:48;101620.28;;;11.02;100.00
28167;BME280;15455;53.376;-6.262;2023-07-20T03:27:34;101623.78;;;10.99;100.00
28167;BME280;15455;53.376;-6.262;2023-07-20T03:30:20;101622.00;;;10.97;100.00
28167;BME280;15455;53.376;-6.262;2023-07-20T03:33:06;101622.84;;;10.94;100.00
28167;BME280;15455;53.376;-6.262;2023-07-20T03:35:51;101627.19;;;10.92;100.00
28167;BME280;15455;53.376;-6.262;2023-07-20T03:38:37;101628.91;;;10.93;100.00
28167;BME280;15455;53.376;-6.262;2023-07-20T03:41:22;101639.41;;;10.98;100.00
28167;BME280;15455;53.376;-6.262;2023-07-20T03:44:08;101636.88;;;11.02;100.00
28167;BME280;15455;53.376;-6.262;2023-07-20T03:46:54;101635.97;;;11.03;100.00
28167;BME280;15455;53.376;-6.262;2023-07-20T03:49:39;101641.28;;;11.09;100.00
28167;BME280;15455;53.376;-6.262;2023-07-20T03:52:24;101641.31;;;11.12;100.00
28167;BME280;15455;53.376;-6.262;2023-07-20T03:55:10;101646.56;;;11.16;100.00
28167;BME280;15455;53.376;-6.262;2023-07-20T03:57:56;101648.34;;;11.18;100.00
28167;BME280;15455;53.376;-6.262;2023-07-20T04:00:49;101642.22;;;11.18;100.00
28167;BME280;15455;53.376;-6.262;2023-07-20T04:03:38;101643.13;;;11.20;100.00
28167;BME280;15455;53.376;-6.262;2023-07-20T04:06:23;101642.25;;;11.21;100.00
28167;BME280;15455;53.376;-6.262;2023-07-20T04:09:11;101642.25;;;11.21;100.00
28167;BME280;15455;53.376;-6.262;2023-07-20T04:11:57;101641.38;;;11.22;100.00
28167;BME280;15455;53.376;-6.262;2023-07-20T04:14:42;101638.78;;;11.22;100.00
28167;BME280;15455;53.376;-6.262;2023-07-20T04:17:28;101637.91;;;11.21;100.00
28167;BME280;15455;53.376;-6.262;2023-07-20T04:20:13;101639.63;;;11.21;100.00
28167;BME280;15455;53.376;-6.262;2023-07-20T04:22:59;101644.84;;;11.21;100.00
28167;BME280;15455;53.376;-6.262;2023-07-20T04:25:45;101645.75;;;11.21;100.00
28167;BME280;15455;53.376;-6.262;2023-07-20T04:28:31;101649.22;;;11.20;100.00
28167;BME280;15455;53.376;-6.262;2023-07-20T04:31:18;101646.63;;;11.22;100.00
28167;BME280;15455;53.376;-6.262;2023-07-20T04:34:04;101650.97;;;11.21;100.00
28167;BME280;15455;53.376;-6.262;2023-07-20T04:36:52;101655.34;;;11.22;100.00
28167;BME280;15455;53.376;-6.262;2023-07-20T04:39:40;101652.75;;;11.22;100.00
28167;BME280;15455;53.376;-6.262;2023-07-20T04:42:28;101649.25;;;11.23;100.00
28167;BME280;15455;53.376;-6.262;2023-07-20T04:45:14;101651.84;;;11.22;100.00
28167;BME280;15455;53.376;-6.262;2023-07-20T04:48:00;101644.00;;;11.22;100.00
28167;BME280;15455;53.376;-6.262;2023-07-20T04:50:47;101646.63;;;11.23;100.00
28167;BME280;15455;53.376;-6.262;2023-07-20T04:53:33;101651.00;;;11.23;100.00
28167;BME280;15455;53.376;-6.262;2023-07-20T04:56:19;101646.63;;;11.22;100.00
28167;BME280;15455;53.376;-6.262;2023-07-20T04:59:06;101643.16;;;11.23;100.00
28167;BME280;15455;53.376;-6.262;2023-07-20T05:01:52;101646.63;;;11.23;100.00
28167;BME280;15455;53.376;-6.262;2023-07-20T05:04:38;101644.03;;;11.25;100.00
28167;BME280;15455;53.376;-6.262;2023-07-20T05:07:24;101644.94;;;11.27;100.00
28167;BME280;15455;53.376;-6.262;2023-07-20T05:10:10;101640.59;;;11.29;100.00
28167;BME280;15455;53.376;-6.262;2023-07-20T05:12:56;101634.53;;;11.33;100.00
28167;BME280;15455;53.376;-6.262;2023-07-20T05:15:41;101642.38;;;11.36;100.00
28167;BME280;15455;53.376;-6.262;2023-07-20T05:18:31;101647.63;;;11.39;100.00
28167;BME280;15455;53.376;-6.262;2023-07-20T05:21:17;101643.31;;;11.40;100.00
28167;BME280;15455;53.376;-6.262;2023-07-20T05:24:03;101638.09;;;11.43;100.00
28167;BME280;15455;53.376;-6.262;2023-07-20T05:26:48;101647.75;;;11.49;100.00
28167;BME280;15455;53.376;-6.262;2023-07-20T05:29:34;101642.53;;;11.52;100.00
28167;BME280;15455;53.376;-6.262;2023-07-20T05:32:19;101638.19;;;11.57;100.00
28167;BME280;15455;53.376;-6.262;2023-07-20T05:35:05;101641.72;;;11.60;100.00
28167;BME280;15455;53.376;-6.262;2023-07-20T05:37:50;101632.13;;;11.62;100.00
28167;BME280;15455;53.376;-6.262;2023-07-20T05:40:41;101632.19;;;11.67;100.00
28167;BME280;15455;53.376;-6.262;2023-07-20T05:43:29;101629.59;;;11.69;100.00
28167;BME280;15455;53.376;-6.262;2023-07-20T05:46:16;101627.84;;;11.71;100.00
28167;BME280;15455;53.376;-6.262;2023-07-20T05:49:02;101628.75;;;11.74;100.00
28167;BME280;15455;53.376;-6.262;2023-07-20T05:51:47;101624.41;;;11.78;100.00
28167;BME280;15455;53.376;-6.262;2023-07-20T05:54:33;101624.44;;;11.81;100.00
28167;BME280;15455;53.376;-6.262;2023-07-20T05:57:18;101627.06;;;11.87;100.00
28167;BME280;15455;53.376;-6.262;2023-07-20T06:00:04;101623.69;;;11.96;100.00
28167;BME280;15455;53.376;-6.262;2023-07-20T06:02:56;101621.97;;;12.04;100.00
28167;BME280;15455;53.376;-6.262;2023-07-20T06:05:41;101623.75;;;12.11;100.00
28167;BME280;15455;53.376;-6.262;2023-07-20T06:08:30;101614.22;;;12.18;100.00
28167;BME280;15455;53.376;-6.262;2023-07-20T06:11:16;101628.22;;;12.26;100.00
28167;BME280;15455;53.376;-6.262;2023-07-20T06:14:02;101628.25;;;12.34;100.00
28167;BME280;15455;53.376;-6.262;2023-07-20T06:16:47;101624.78;;;12.37;100.00
28167;BME280;15455;53.376;-6.262;2023-07-20T06:19:33;101630.03;;;12.44;100.00
28167;BME280;15455;53.376;-6.262;2023-07-20T06:22:18;101634.41;;;12.48;100.00
28167;BME280;15455;53.376;-6.262;2023-07-20T06:25:04;101632.66;;;12.47;100.00
28167;BME280;15455;53.376;-6.262;2023-07-20T06:27:50;101623.09;;;12.49;100.00
28167;BME280;15455;53.376;-6.262;2023-07-20T06:30:40;101630.06;;;12.54;100.00
28167;BME280;15455;53.376;-6.262;2023-07-20T06:33:25;101625.72;;;12.56;100.00
28167;BME280;15455;53.376;-6.262;2023-07-20T06:36:11;101630.09;;;12.57;100.00
28167;BME280;15455;53.376;-6.262;2023-07-20T06:38:56;101630.09;;;12.58;100.00
28167;BME280;15455;53.376;-6.262;2023-07-20T06:41:45;101633.56;;;12.59;100.00
28167;BME280;15455;53.376;-6.262;2023-07-20T06:44:31;101626.59;;;12.59;100.00
28167;BME280;15455;53.376;-6.262;2023-07-20T06:47:16;101628.34;;;12.62;100.00
28167;BME280;15455;53.376;-6.262;2023-07-20T06:50:01;101627.50;;;12.63;100.00
28167;BME280;15455;53.376;-6.262;2023-07-20T06:52:47;101624.00;;;12.70;100.00
28167;BME280;15455;53.376;-6.262;2023-07-20T06:55:33;101626.63;;;12.73;100.00
28167;BME280;15455;53.376;-6.262;2023-07-20T06:58:26;101626.63;;;12.75;100.00
28167;BME280;15455;53.376;-6.262;2023-07-20T07:01:11;101631.00;;;12.74;100.00
28167;BME280;15455;53.376;-6.262;2023-07-20T07:03:57;101620.53;;;12.73;100.00
28167;BME280;15455;53.376;-6.262;2023-07-20T07:06:43;101633.63;;;12.73;100.00
28167;BME280;15455;53.376;-6.262;2023-07-20T07:09:29;101637.97;;;12.75;100.00
28167;BME280;15455;53.376;-6.262;2023-07-20T07:12:15;101628.41;;;12.80;100.00
28167;BME280;15455;53.376;-6.262;2023-07-20T07:15:01;101630.16;;;12.81;100.00
28167;BME280;15455;53.376;-6.262;2023-07-20T07:17:46;101630.16;;;12.84;100.00
28167;BME280;15455;53.376;-6.262;2023-07-20T07:20:32;101623.16;;;12.88;100.00
28167;BME280;15455;53.376;-6.262;2023-07-20T07:23:17;101622.31;;;12.97;100.00
28167;BME280;15455;53.376;-6.262;2023-07-20T07:26:03;101634.59;;;13.07;100.00
28167;BME280;15455;53.376;-6.262;2023-07-20T07:28:48;101627.56;;;13.20;100.00
28167;BME280;15455;53.376;-6.262;2023-07-20T07:31:35;101618.91;;;13.35;100.00
28167;BME280;15455;53.376;-6.262;2023-07-20T07:34:24;101619.78;;;13.49;100.00
28167;BME280;15455;53.376;-6.262;2023-07-20T07:37:09;101616.25;;;13.66;100.00
28167;BME280;15455;53.376;-6.262;2023-07-20T07:39:54;101605.75;;;13.80;100.00
28167;BME280;15455;53.376;-6.262;2023-07-20T07:42:40;101591.72;;;13.90;100.00
28167;BME280;15455;53.376;-6.262;2023-07-20T07:45:25;101580.34;;;13.97;100.00
28167;BME280;15455;53.376;-6.262;2023-07-20T07:48:11;101571.56;;;14.01;100.00
28167;BME280;15455;53.376;-6.262;2023-07-20T07:50:57;101571.56;;;14.06;100.00
28167;BME280;15455;53.376;-6.262;2023-07-20T07:53:43;101576.78;;;14.09;100.00
28167;BME280;15455;53.376;-6.262;2023-07-20T07:56:29;101570.69;;;14.04;100.00
28167;BME280;15455;53.376;-6.262;2023-07-20T07:59:15;101569.81;;;13.99;100.00
28167;BME280;15455;53.376;-6.262;2023-07-20T08:02:00;101568.09;;;13.90;100.00
28167;BME280;15455;53.376;-6.262;2023-07-20T08:04:45;101568.13;;;13.79;100.00
28167;BME280;15455;53.376;-6.262;2023-07-20T08:07:32;101570.75;;;13.73;100.00
28167;BME280;15455;53.376;-6.262;2023-07-20T08:10:17;101575.16;;;13.65;100.00
28167;BME280;15455;53.376;-6.262;2023-07-20T08:13:03;101573.41;;;13.58;100.00
28167;BME280;15455;53.376;-6.262;2023-07-20T08:15:50;101572.56;;;13.55;100.00
28167;BME280;15455;53.376;-6.262;2023-07-20T08:18:37;101569.94;;;13.55;100.00
28167;BME280;15455;53.376;-6.262;2023-07-20T08:21:23;101576.94;;;13.58;100.00
28167;BME280;15455;53.376;-6.262;2023-07-20T08:24:08;101569.91;;;13.65;100.00
28167;BME280;15455;53.376;-6.262;2023-07-20T08:26:54;101565.53;;;13.73;100.00
28167;BME280;15455;53.376;-6.262;2023-07-20T08:29:39;101562.88;;;13.81;100.00
28167;BME280;15455;53.376;-6.262;2023-07-20T08:32:25;101560.22;;;13.90;100.00
28167;BME280;15455;53.376;-6.262;2023-07-20T08:35:11;101554.94;;;14.04;100.00
28167;BME280;15455;53.376;-6.262;2023-07-20T08:38:00;101559.28;;;14.11;100.00
28167;BME280;15455;53.376;-6.262;2023-07-20T08:40:48;101560.13;;;14.16;100.00
28167;BME280;15455;53.376;-6.262;2023-07-20T08:43:33;101562.72;;;14.29;100.00
28167;BME280;15455;53.376;-6.262;2023-07-20T08:46:20;101560.00;;;14.41;100.00
28167;BME280;15455;53.376;-6.262;2023-07-20T08:49:07;101559.94;;;14.55;100.00
28167;BME280;15455;53.376;-6.262;2023-07-20T08:51:53;101546.72;;;14.69;100.00
28167;BME280;15455;53.376;-6.262;2023-07-20T08:54:40;101547.50;;;14.88;100.00
28167;BME280;15455;53.376;-6.262;2023-07-20T08:57:25;101539.47;;;15.03;100.00
28167;BME280;15455;53.376;-6.262;2023-07-20T09:00:13;101530.63;;;15.17;100.00
28167;BME280;15455;53.376;-6.262;2023-07-20T09:03:00;101525.19;;;15.34;100.00
28167;BME280;15455;53.376;-6.262;2023-07-20T09:05:48;101532.88;;;15.54;100.00
28167;BME280;15455;53.376;-6.262;2023-07-20T09:08:38;101523.03;;;15.70;100.00
28167;BME280;15455;53.376;-6.262;2023-07-20T09:11:23;101524.69;;;15.83;100.00
28167;BME280;15455;53.376;-6.262;2023-07-20T09:14:09;101521.00;;;15.98;100.00
28167;BME280;15455;53.376;-6.262;2023-07-20T09:16:55;101519.97;;;16.10;100.00
28167;BME280;15455;53.376;-6.262;2023-07-20T09:19:48;101512.94;;;16.10;100.00
28167;BME280;15455;53.376;-6.262;2023-07-20T09:22:34;101512.00;;;16.14;100.00
28167;BME280;15455;53.376;-6.262;2023-07-20T09:25:20;101507.50;;;16.23;100.00
28167;BME280;15455;53.376;-6.262;2023-07-20T09:28:07;101507.53;;;16.21;100.00
28167;BME280;15455;53.376;-6.262;2023-07-20T09:30:54;101512.75;;;16.24;100.00
28167;BME280;15455;53.376;-6.262;2023-07-20T09:33:42;101501.44;;;16.19;100.00
28167;BME280;15455;53.376;-6.262;2023-07-20T09:36:45;101505.00;;;16.13;100.00
28167;BME280;15455;53.376;-6.262;2023-07-20T09:39:45;101513.97;;;15.97;100.00
28167;BME280;15455;53.376;-6.262;2023-07-20T09:42:35;101514.19;;;15.77;100.00
28167;BME280;15455;53.376;-6.262;2023-07-20T09:45:22;101517.09;;;15.54;100.00
28167;BME280;15455;53.376;-6.262;2023-07-20T09:48:27;101527.03;;;15.21;100.00
28167;BME280;15455;53.376;-6.262;2023-07-20T09:51:15;101529.81;;;15.07;100.00
28167;BME280;15455;53.376;-6.262;2023-07-20T09:54:01;101530.78;;;14.97;100.00
28167;BME280;15455;53.376;-6.262;2023-07-20T09:56:50;101534.19;;;15.06;100.00
28167;BME280;15455;53.376;-6.262;2023-07-20T09:59:37;101556.81;;;15.26;100.00
28167;BME280;15455;53.376;-6.262;2023-07-20T10:02:25;101552.34;;;15.37;100.00
28167;BME280;15455;53.376;-6.262;2023-07-20T10:05:13;101540.81;;;15.49;100.00
28167;BME280;15455;53.376;-6.262;2023-07-20T10:08:01;101521.44;;;15.56;100.00
28167;BME280;15455;53.376;-6.262;2023-07-20T10:10:50;101516.09;;;15.67;100.00
28167;BME280;15455;53.376;-6.262;2023-07-20T10:13:38;101511.63;;;15.71;100.00
28167;BME280;15455;53.376;-6.262;2023-07-20T10:16:28;101508.94;;;15.75;100.00
28167;BME280;15455;53.376;-6.262;2023-07-20T10:22:36;101501.81;;;15.88;100.00
28167;BME280;15455;53.376;-6.262;2023-07-20T10:25:26;101501.03;;;15.82;100.00
28167;BME280;15455;53.376;-6.262;2023-07-20T10:28:13;101492.97;;;15.94;100.00
28167;BME280;15455;53.376;-6.262;2023-07-20T10:30:58;101507.66;;;16.10;100.00
28167;BME280;15455;53.376;-6.262;2023-07-20T10:33:44;101505.75;;;16.22;100.00
28167;BME280;15455;53.376;-6.262;2023-07-20T10:36:30;101502.38;;;16.13;100.00
28167;BME280;15455;53.376;-6.262;2023-07-20T10:39:26;101505.22;;;15.96;100.00
28167;BME280;15455;53.376;-6.262;2023-07-20T10:42:13;101508.78;;;15.92;100.00
28167;BME280;15455;53.376;-6.262;2023-07-20T10:45:00;101514.28;;;15.71;100.00
28167;BME280;15455;53.376;-6.262;2023-07-20T10:47:46;101520.63;;;15.51;100.00
28167;BME280;15455;53.376;-6.262;2023-07-20T10:50:33;101518.97;;;15.41;100.00
28167;BME280;15455;53.376;-6.262;2023-07-20T10:53:21;101531.53;;;15.11;100.00
28167;BME280;15455;53.376;-6.262;2023-07-20T10:56:13;101531.59;;;15.03;100.00
28167;BME280;15455;53.376;-6.262;2023-07-20T10:59:00;101544.88;;;14.88;100.00
28167;BME280;15455;53.376;-6.262;2023-07-20T11:01:47;101525.63;;;14.83;100.00
28167;BME280;15455;53.376;-6.262;2023-07-20T11:04:42;101531.63;;;14.99;100.00
28167;BME280;15455;53.376;-6.262;2023-07-20T11:07:38;101527.16;;;15.10;100.00
28167;BME280;15455;53.376;-6.262;2023-07-20T11:10:23;101514.06;;;15.05;100.00
28167;BME280;15455;53.376;-6.262;2023-07-20T11:13:18;101520.03;;;15.24;100.00
28167;BME280;15455;53.376;-6.262;2023-07-20T11:16:04;101508.50;;;15.36;100.00
28167;BME280;15455;53.376;-6.262;2023-07-20T11:18:50;101501.31;;;15.52;100.00
28167;BME280;15455;53.376;-6.262;2023-07-20T11:21:38;101482.84;;;15.60;100.00
28167;BME280;15455;53.376;-6.262;2023-07-20T11:24:40;101486.13;;;15.77;100.00
28167;BME280;15455;53.376;-6.262;2023-07-20T11:27:25;101484.94;;;16.03;100.00
28167;BME280;15455;53.376;-6.262;2023-07-20T11:30:16;101471.53;;;16.20;100.00
28167;BME280;15455;53.376;-6.262;2023-07-20T11:33:01;101466.78;;;16.47;100.00
28167;BME280;15455;53.376;-6.262;2023-07-20T11:35:49;101469.97;;;16.66;100.00
28167;BME280;15455;53.376;-6.262;2023-07-20T11:38:36;101470.50;;;16.88;100.00
28167;BME280;15455;53.376;-6.262;2023-07-20T11:41:21;101470.03;;;17.17;100.00
28167;BME280;15455;53.376;-6.262;2023-07-20T11:44:07;101457.03;;;17.52;100.00
28167;BME280;15455;53.376;-6.262;2023-07-20T11:47:00;101464.28;;;17.84;100.00
28167;BME280;15455;53.376;-6.262;2023-07-20T11:49:47;101461.41;;;17.97;100.00
28167;BME280;15455;53.376;-6.262;2023-07-20T11:52:38;101456.59;;;17.74;100.00
28167;BME280;15455;53.376;-6.262;2023-07-20T11:55:23;101458.81;;;17.51;100.00
28167;BME280;15455;53.376;-6.262;2023-07-20T11:58:09;101464.38;;;17.36;100.00
28167;BME280;15455;53.376;-6.262;2023-07-20T12:00:55;101458.34;;;17.29;100.00
28167;BME280;15455;53.376;-6.262;2023-07-20T12:03:44;101455.34;;;17.01;100.00
28167;BME280;15455;53.376;-6.262;2023-07-20T12:06:30;101458.22;;;16.87;100.00
28167;BME280;15455;53.376;-6.262;2023-07-20T12:09:17;101465.34;;;16.80;100.00
28167;BME280;15455;53.376;-6.262;2023-07-20T12:12:09;101449.50;;;16.82;100.00
28167;BME280;15455;53.376;-6.262;2023-07-20T12:15:19;101447.75;;;16.81;100.00
28167;BME280;15455;53.376;-6.262;2023-07-20T12:18:05;101448.03;;;16.65;100.00
28167;BME280;15455;53.376;-6.262;2023-07-20T12:20:58;101441.06;;;16.61;100.00
28167;BME280;15455;53.376;-6.262;2023-07-20T12:23:45;101444.47;;;16.66;100.00
28167;BME280;15455;53.376;-6.262;2023-07-20T12:26:31;101446.78;;;16.87;100.00
28167;BME280;15455;53.376;-6.262;2023-07-20T12:29:17;101435.03;;;17.08;100.00
28167;BME280;15455;53.376;-6.262;2023-07-20T12:32:03;101440.03;;;17.23;100.00
28167;BME280;15455;53.376;-6.262;2023-07-20T12:34:49;101437.25;;;17.29;100.00
28167;BME280;15455;53.376;-6.262;2023-07-20T12:37:35;101434.75;;;17.22;100.00
28167;BME280;15455;53.376;-6.262;2023-07-20T12:40:20;101431.69;;;16.98;100.00
28167;BME280;15455;53.376;-6.262;2023-07-20T12:43:06;101432.75;;;16.86;100.00
28167;BME280;15455;53.376;-6.262;2023-07-20T12:45:53;101431.06;;;16.82;100.00
28167;BME280;15455;53.376;-6.262;2023-07-20T12:48:39;101429.25;;;16.84;100.00
28167;BME280;15455;53.376;-6.262;2023-07-20T12:51:30;101429.22;;;16.87;100.00
28167;BME280;15455;53.376;-6.262;2023-07-20T12:54:15;101423.84;;;16.93;100.00
28167;BME280;15455;53.376;-6.262;2023-07-20T12:57:01;101427.09;;;17.09;100.00
28167;BME280;15455;53.376;-6.262;2023-07-20T12:59:50;101426.78;;;17.25;100.00
28167;BME280;15455;53.376;-6.262;2023-07-20T13:02:36;101419.31;;;17.47;100.00
28167;BME280;15455;53.376;-6.262;2023-07-20T13:05:22;101416.25;;;17.67;100.00
28167;BME280;15455;53.376;-6.262;2023-07-20T13:08:27;101421.25;;;17.79;100.00
28167;BME280;15455;53.376;-6.262;2023-07-20T13:11:13;101419.38;;;17.86;100.00
28167;BME280;15455;53.376;-6.262;2023-07-20T13:13:58;101420.19;;;17.88;100.00
28167;BME280;15455;53.376;-6.262;2023-07-20T13:16:44;101421.28;;;17.78;100.00
28167;BME280;15455;53.376;-6.262;2023-07-20T13:19:29;101404.72;;;17.73;100.00
28167;BME280;15455;53.376;-6.262;2023-07-20T13:22:15;101410.69;;;17.79;100.00
28167;BME280;15455;53.376;-6.262;2023-07-20T13:25:01;101414.06;;;17.87;100.00
28167;BME280;15455;53.376;-6.262;2023-07-20T13:27:47;101416.75;;;17.84;100.00
28167;BME280;15455;53.376;-6.262;2023-07-20T13:30:32;101413.31;;;17.81;100.00
28167;BME280;15455;53.376;-6.262;2023-07-20T13:33:18;101412.66;;;17.71;100.00
28167;BME280;15455;53.376;-6.262;2023-07-20T13:36:05;101415.00;;;17.43;100.00
28167;BME280;15455;53.376;-6.262;2023-07-20T13:38:53;101417.25;;;17.17;100.00
28167;BME280;15455;53.376;-6.262;2023-07-20T13:41:39;101424.88;;;16.84;100.00
28167;BME280;15455;53.376;-6.262;2023-07-20T13:44:24;101432.56;;;16.44;100.00
28167;BME280;15455;53.376;-6.262;2023-07-20T13:47:10;101431.50;;;15.96;100.00
28167;BME280;15455;53.376;-6.262;2023-07-20T13:49:58;101438.81;;;15.74;100.00
28167;BME280;15455;53.376;-6.262;2023-07-20T13:52:47;101433.84;;;15.48;100.00
28167;BME280;15455;53.376;-6.262;2023-07-20T13:55:32;101430.66;;;15.20;100.00
28167;BME280;15455;53.376;-6.262;2023-07-20T13:58:25;101445.94;;;14.77;100.00
28167;BME280;15455;53.376;-6.262;2023-07-20T14:01:10;101446.94;;;14.59;100.00
28167;BME280;15455;53.376;-6.262;2023-07-20T14:03:56;101449.78;;;14.32;100.00
28167;BME280;15455;53.376;-6.262;2023-07-20T14:06:42;101454.19;;;14.23;100.00
28167;BME280;15455;53.376;-6.262;2023-07-20T14:09:29;101462.06;;;14.23;100.00
28167;BME280;15455;53.376;-6.262;2023-07-20T14:12:14;101457.69;;;14.24;100.00
28167;BME280;15455;53.376;-6.262;2023-07-20T14:15:04;101462.91;;;14.32;100.00
28167;BME280;15455;53.376;-6.262;2023-07-20T14:17:50;101454.91;;;14.50;100.00